createdAt,value
2022-11-02T00:00:56.197Z,70.45
2022-11-02T00:02:57.796Z,70.40
2022-11-02T00:04:59.287Z,70.34
2022-11-02T00:07:00.704Z,70.69
2022-11-02T00:09:02.627Z,70.67
2022-11-02T00:11:04.235Z,70.17
2022-11-02T00:13:06.139Z,70.19
2022-11-02T00:15:08.667Z,70.48
2022-11-02T00:17:10.156Z,70.52
2022-11-02T00:19:11.899Z,70.54
2022-11-02T00:21:14.888Z,70.44
2022-11-02T00:23:16.345Z,70.34
2022-11-02T00:25:21.653Z,70.44
2022-11-02T00:27:24.037Z,70.41
2022-11-02T00:29:27.856Z,70.44
2022-11-02T00:31:31.473Z,70.40
2022-11-02T00:33:32.908Z,70.24
2022-11-02T00:35:35.434Z,70.52
2022-11-02T00:37:37.081Z,70.12
2022-11-02T00:39:38.508Z,70.35
2022-11-02T00:41:40.053Z,70.15
2022-11-02T00:43:41.485Z,69.83
2022-11-02T00:45:42.913Z,70.08
2022-11-02T00:47:44.343Z,69.76
2022-11-02T00:49:45.806Z,70.05
2022-11-02T00:51:47.328Z,69.85
2022-11-02T00:53:48.884Z,69.74
2022-11-02T00:55:50.367Z,69.76
2022-11-02T00:57:51.806Z,70.06
2022-11-02T00:59:53.237Z,69.71
2022-11-02T01:01:54.787Z,69.86
2022-11-02T01:03:57.605Z,70.23
2022-11-02T01:05:59.161Z,70.43
2022-11-02T01:08:00.690Z,71.21
2022-11-02T01:10:02.226Z,72.28
2022-11-02T01:12:03.798Z,72.75
2022-11-02T01:14:05.312Z,73.48
2022-11-02T01:16:07.487Z,73.65
2022-11-02T01:18:09.195Z,74.28
2022-11-02T01:20:12.250Z,74.02
2022-11-02T01:22:13.715Z,74.10
2022-11-02T01:24:15.171Z,74.08
2022-11-02T01:26:16.755Z,73.81
2022-11-02T01:28:18.663Z,74.18
2022-11-02T01:30:20.098Z,74.07
2022-11-02T01:32:21.567Z,73.85
2022-11-02T01:34:23.115Z,73.49
2022-11-02T01:36:24.603Z,73.93
2022-11-02T01:38:26.049Z,74.00
2022-11-02T01:40:27.475Z,73.83
2022-11-02T01:42:28.972Z,74.04
2022-11-02T01:44:35.507Z,73.83
2022-11-02T01:46:46.672Z,74.07
2022-11-02T01:48:54.472Z,74.21
2022-11-02T01:50:57.467Z,73.99
2022-11-02T01:52:59.711Z,74.12
2022-11-02T01:55:07.079Z,74.20
2022-11-02T01:57:12.603Z,74.33
2022-11-02T01:59:19.616Z,74.00
2022-11-02T02:01:21.233Z,73.99
2022-11-02T02:03:23.094Z,74.08
2022-11-02T02:05:25.534Z,73.92
2022-11-02T02:07:27.967Z,73.99
2022-11-02T02:09:30.146Z,74.28
2022-11-02T02:11:34.187Z,73.92
2022-11-02T02:13:35.710Z,74.01
2022-11-02T02:15:53.789Z,73.99
2022-11-02T02:18:04.348Z,74.14
2022-11-02T02:20:17.980Z,74.14
2022-11-02T02:22:51.063Z,73.98
2022-11-02T02:25:06.046Z,74.06
2022-11-02T02:27:23.570Z,74.04
2022-11-02T02:30:09.437Z,73.91
2022-11-02T02:32:19.152Z,74.65
2022-11-02T02:34:35.590Z,74.57
2022-11-02T02:36:51.698Z,74.76
2022-11-02T02:39:13.136Z,75.07
2022-11-02T02:41:23.942Z,75.30
2022-11-02T02:43:32.396Z,75.47
2022-11-02T02:45:44.578Z,75.71
2022-11-02T02:48:00.495Z,75.84
2022-11-02T02:50:26.017Z,76.17
2022-11-02T02:52:30.420Z,76.31
2022-11-02T02:54:40.881Z,76.24
2022-11-02T02:56:51.058Z,76.33
2022-11-02T02:58:58.648Z,76.59
2022-11-02T03:01:00.747Z,77.00
2022-11-02T03:03:04.640Z,76.95
2022-11-02T03:05:26.158Z,76.81
2022-11-02T03:07:33.964Z,77.04
2022-11-02T03:09:48.376Z,77.04
2022-11-02T03:12:00.751Z,77.06
2022-11-02T03:14:07.661Z,77.39
2022-11-02T03:16:36.264Z,77.70
2022-11-02T03:18:43.882Z,77.77
2022-11-02T03:21:19.611Z,78.26
2022-11-02T03:23:48.862Z,78.05
2022-11-02T03:26:12.710Z,78.28
2022-11-02T03:28:37.149Z,78.13
2022-11-02T03:31:18.675Z,78.42
2022-11-02T03:33:27.111Z,78.71
2022-11-02T03:35:57.640Z,78.44
2022-11-02T03:38:03.979Z,78.85
2022-11-02T03:40:18.391Z,79.74
2022-11-02T03:42:28.010Z,79.92
2022-11-02T03:44:33.494Z,79.96
2022-11-02T03:46:38.590Z,79.87
2022-11-02T03:48:46.721Z,79.96
2022-11-02T03:50:52.811Z,79.60
2022-11-02T03:53:03.738Z,79.29
2022-11-02T03:55:13.399Z,78.93
2022-11-02T03:57:21.257Z,79.18
2022-11-02T03:59:22.760Z,78.98
2022-11-02T04:01:26.705Z,78.46
2022-11-02T04:03:31.808Z,78.42
2022-11-02T04:05:35.511Z,78.02
2022-11-02T04:07:59.745Z,78.41
2022-11-02T04:10:01.234Z,78.58
2022-11-02T04:12:21.012Z,78.60
2022-11-02T04:14:40.965Z,78.31
2022-11-02T04:16:42.586Z,78.59
2022-11-02T04:19:02.916Z,78.61
2022-11-02T04:21:04.417Z,78.59
2022-11-02T04:23:24.526Z,79.12
2022-11-02T04:25:26.007Z,79.06
2022-11-02T04:27:27.496Z,79.46
2022-11-02T04:29:28.919Z,79.76
2022-11-02T04:31:30.423Z,79.68
2022-11-02T04:33:35.053Z,79.40
2022-11-02T04:35:37.677Z,79.92
2022-11-02T04:37:59.546Z,79.77
2022-11-02T04:40:00.965Z,80.09
2022-11-02T04:42:02.384Z,80.50
2022-11-02T04:44:04.756Z,80.94
2022-11-02T04:46:06.207Z,81.52
2022-11-02T04:48:09.349Z,81.42
2022-11-02T04:50:11.542Z,81.68
2022-11-02T04:52:12.974Z,81.88
2022-11-02T04:54:14.382Z,82.34
2022-11-02T04:56:16.241Z,82.58
2022-11-02T04:58:17.737Z,83.50
2022-11-02T05:00:21.679Z,83.81
2022-11-02T05:02:23.218Z,84.36
2022-11-02T05:04:24.740Z,85.00
2022-11-02T05:06:26.250Z,85.59
2022-11-02T05:08:28.057Z,85.73
2022-11-02T05:10:30.381Z,86.40
2022-11-02T05:12:31.866Z,87.01
2022-11-02T05:14:33.967Z,87.42
2022-11-02T05:16:35.551Z,87.54
2022-11-02T05:18:36.975Z,87.58
2022-11-02T05:20:38.471Z,87.48
2022-11-02T05:22:43.639Z,88.11
2022-11-02T05:24:45.066Z,88.43
2022-11-02T05:26:52.864Z,89.10
2022-11-02T05:28:55.684Z,89.38
2022-11-02T05:31:00.542Z,89.50
2022-11-02T05:33:03.086Z,89.16
2022-11-02T05:35:05.227Z,88.71
2022-11-02T05:37:06.654Z,88.31
2022-11-02T05:39:08.134Z,88.03
2022-11-02T05:41:09.674Z,87.42
2022-11-02T05:43:11.185Z,87.22
2022-11-02T05:45:12.899Z,87.38
2022-11-02T05:47:14.376Z,87.46
2022-11-02T05:49:15.810Z,86.97
2022-11-02T05:51:17.662Z,87.25
2022-11-02T05:53:19.075Z,86.71
2022-11-02T05:55:20.584Z,87.33
2022-11-02T05:57:22.008Z,87.32
2022-11-02T05:59:23.437Z,88.77
2022-11-02T06:01:25.027Z,89.28
2022-11-02T06:03:26.706Z,89.97
2022-11-02T06:05:28.247Z,90.41
2022-11-02T06:07:29.682Z,89.87
2022-11-02T06:09:31.134Z,89.50
2022-11-02T06:11:32.668Z,89.69
2022-11-02T06:13:34.722Z,89.75
2022-11-02T06:15:36.209Z,90.24
2022-11-02T06:17:41.072Z,90.12
2022-11-02T06:19:42.546Z,90.46
2022-11-02T06:21:47.423Z,89.66
2022-11-02T06:23:50.610Z,89.68
2022-11-02T06:25:53.520Z,89.27
2022-11-02T06:27:56.923Z,89.20
2022-11-02T06:29:58.391Z,89.17
2022-11-02T06:31:59.843Z,87.89
2022-11-02T06:34:01.252Z,88.30
2022-11-02T06:36:02.847Z,88.37
2022-11-02T06:38:04.267Z,88.70
2022-11-02T06:40:06.290Z,87.95
2022-11-02T06:42:07.793Z,88.29
2022-11-02T06:44:09.202Z,88.15
2022-11-02T06:46:10.695Z,87.86
2022-11-02T06:48:12.203Z,87.90
2022-11-02T06:50:13.669Z,87.15
2022-11-02T06:52:15.087Z,87.07
2022-11-02T06:54:16.674Z,86.88
2022-11-02T06:56:18.410Z,86.82
2022-11-02T06:58:20.082Z,86.54
2022-11-02T07:00:23.845Z,86.43
2022-11-02T07:02:25.736Z,85.40
2022-11-02T07:04:27.272Z,85.26
2022-11-02T07:06:28.762Z,85.05
2022-11-02T07:08:30.226Z,84.66
2022-11-02T07:10:32.132Z,84.67
2022-11-02T07:12:33.567Z,84.07
2022-11-02T07:14:35.023Z,83.58
2022-11-02T07:16:36.472Z,83.37
2022-11-02T07:18:37.990Z,83.27
2022-11-02T07:20:39.548Z,82.68
2022-11-02T07:22:41.361Z,82.62
2022-11-02T07:24:42.768Z,82.44
2022-11-02T07:26:44.495Z,82.05
2022-11-02T07:28:47.107Z,81.66
2022-11-02T07:30:49.218Z,81.38
2022-11-02T07:32:50.781Z,81.16
2022-11-02T07:34:52.202Z,80.77
2022-11-02T07:36:55.486Z,80.66
2022-11-02T07:38:56.969Z,80.12
2022-11-02T07:40:58.379Z,79.66
2022-11-02T07:43:00.639Z,79.62
2022-11-02T07:45:02.180Z,79.42
2022-11-02T07:47:03.657Z,79.40
2022-11-02T07:49:05.128Z,79.26
2022-11-02T07:51:07.796Z,78.86
2022-11-02T07:53:09.707Z,78.82
2022-11-02T07:55:12.571Z,78.61
2022-11-02T07:57:14.035Z,78.14
2022-11-02T07:59:15.488Z,77.67
2022-11-02T08:01:16.947Z,77.33
2022-11-02T08:03:18.498Z,77.26
2022-11-02T08:05:19.959Z,77.60
2022-11-02T08:07:21.401Z,77.74
2022-11-02T08:09:22.946Z,77.98
2022-11-02T08:11:24.394Z,77.70
2022-11-02T08:13:26.081Z,77.38
2022-11-02T08:15:27.577Z,77.39
2022-11-02T08:17:29.031Z,77.87
2022-11-02T08:19:30.745Z,77.79
2022-11-02T08:21:32.230Z,77.58
2022-11-02T08:23:33.732Z,77.85
2022-11-02T08:25:37.599Z,77.31
2022-11-02T08:27:39.043Z,77.60
2022-11-02T08:29:40.578Z,77.17
2022-11-02T08:31:42.053Z,76.51
2022-11-02T08:33:44.373Z,76.76
2022-11-02T08:35:47.082Z,76.66
2022-11-02T08:37:55.212Z,77.00
2022-11-02T08:39:56.641Z,76.75
2022-11-02T08:41:58.070Z,76.45
2022-11-02T08:43:59.515Z,76.01
2022-11-02T08:46:14.856Z,75.56
2022-11-02T08:48:17.000Z,75.45
2022-11-02T08:50:18.516Z,75.42
2022-11-02T08:52:20.020Z,75.32
2022-11-02T08:54:21.476Z,75.32
2022-11-02T08:56:23.205Z,75.28
2022-11-02T08:58:24.623Z,75.52
2022-11-02T09:00:31.506Z,74.75
2022-11-02T09:02:33.011Z,73.99
2022-11-02T09:04:34.470Z,74.18
2022-11-02T09:06:35.909Z,74.39
2022-11-02T09:08:37.401Z,73.96
2022-11-02T09:10:39.085Z,74.21
2022-11-02T09:12:40.525Z,73.86
2022-11-02T09:14:42.045Z,73.83
2022-11-02T09:16:43.488Z,73.49
2022-11-02T09:18:44.906Z,73.62
2022-11-02T09:20:47.884Z,72.34
2022-11-02T09:22:49.534Z,72.34
2022-11-02T09:24:50.975Z,71.89
2022-11-02T09:26:53.078Z,72.06
2022-11-02T09:28:54.533Z,72.42
2022-11-02T09:30:56.069Z,72.64
2022-11-02T09:32:59.246Z,72.68
2022-11-02T09:35:02.021Z,72.40
2022-11-02T09:37:03.501Z,72.80
2022-11-02T09:39:04.954Z,72.88
2022-11-02T09:41:18.337Z,73.06
2022-11-02T09:43:50.196Z,72.71
2022-11-02T09:46:00.573Z,72.97
2022-11-02T09:48:17.758Z,72.69
2022-11-02T09:50:24.445Z,72.18
2022-11-02T09:52:35.927Z,71.71
2022-11-02T09:54:43.928Z,71.15
2022-11-02T09:56:47.071Z,71.42
2022-11-02T09:59:05.374Z,71.23
2022-11-02T10:01:33.775Z,71.41
2022-11-02T10:03:48.623Z,72.88
2022-11-02T10:06:15.526Z,74.72
2022-11-02T10:08:29.151Z,76.14
2022-11-02T10:11:06.988Z,77.08
2022-11-02T10:13:15.615Z,77.27
2022-11-02T10:15:40.287Z,78.46
2022-11-02T10:17:43.568Z,77.60
2022-11-02T10:19:53.199Z,77.51
2022-11-02T10:21:58.158Z,77.69
2022-11-02T10:24:19.741Z,75.88
2022-11-02T10:26:33.058Z,74.06
2022-11-02T10:28:39.639Z,73.76
2022-11-02T10:30:43.966Z,73.06
2022-11-02T10:32:50.712Z,72.44
2022-11-02T10:34:59.026Z,69.64
2022-11-02T10:37:42.935Z,69.00
2022-11-02T10:40:13.045Z,69.56
2022-11-02T10:42:44.084Z,69.53
2022-11-02T10:45:07.422Z,69.09
2022-11-02T10:47:22.739Z,68.89
2022-11-02T10:49:51.923Z,68.40
2022-11-02T10:51:53.443Z,69.09
2022-11-02T10:53:55.647Z,68.19
2022-11-02T10:56:07.490Z,68.06
2022-11-02T10:58:15.753Z,68.37
2022-11-02T11:00:35.313Z,68.71
2022-11-02T11:02:36.806Z,68.38
2022-11-02T11:04:38.296Z,68.14
2022-11-02T11:06:42.590Z,67.90
2022-11-02T11:08:47.811Z,68.92
2022-11-02T11:10:49.376Z,68.49
2022-11-02T11:12:50.936Z,68.19
2022-11-02T11:20:01.342Z,67.60
2022-11-02T11:22:25.048Z,67.68
2022-11-02T11:24:33.279Z,67.13
2022-11-02T11:26:34.762Z,66.63
2022-11-02T11:28:53.225Z,67.06
2022-11-02T11:31:18.061Z,65.74
2022-11-02T11:33:21.464Z,66.30
2022-11-02T11:35:32.846Z,64.23
2022-11-02T11:37:34.389Z,63.21
2022-11-02T11:39:37.697Z,63.35
2022-11-02T11:41:40.489Z,63.42
2022-11-02T11:43:42.615Z,62.27
2022-11-02T11:45:54.995Z,62.35
2022-11-02T11:48:06.658Z,62.00
2022-11-02T11:50:22.999Z,61.28
2022-11-02T11:52:33.156Z,62.25
2022-11-02T11:54:35.060Z,61.66
2022-11-02T11:56:36.605Z,61.45
2022-11-02T11:58:50.630Z,61.88
2022-11-02T12:01:07.506Z,63.14
2022-11-02T12:03:14.362Z,62.85
2022-11-02T12:05:20.773Z,63.94
2022-11-02T12:07:25.000Z,64.40
2022-11-02T12:09:40.433Z,63.54
2022-11-02T12:12:01.384Z,63.61
2022-11-02T12:14:21.007Z,62.44
2022-11-02T12:16:43.239Z,61.57
2022-11-02T12:19:13.539Z,61.58
2022-11-02T12:21:30.119Z,62.17
2022-11-02T12:23:45.331Z,61.53
2022-11-02T12:26:06.018Z,62.12
2022-11-02T12:28:10.622Z,62.48
2022-11-02T12:30:50.904Z,62.51
2022-11-02T12:33:00.305Z,62.66
2022-11-02T12:35:29.274Z,62.32
2022-11-02T12:37:49.577Z,62.52
2022-11-02T12:40:06.050Z,62.28
2022-11-02T12:42:22.646Z,62.14
2022-11-02T12:44:48.739Z,60.44
2022-11-02T12:47:03.652Z,60.87
2022-11-02T12:49:17.483Z,59.02
2022-11-02T12:51:24.534Z,59.74
2022-11-02T12:53:39.542Z,59.77
2022-11-02T12:55:47.067Z,59.90
2022-11-02T12:57:49.414Z,61.08
2022-11-02T12:59:55.781Z,60.76
2022-11-02T13:02:13.671Z,60.27
2022-11-02T13:04:31.068Z,60.36
2022-11-02T13:06:39.291Z,61.12
2022-11-02T13:09:19.973Z,61.01
2022-11-02T13:11:35.772Z,60.88
2022-11-02T13:13:43.933Z,61.14
2022-11-02T13:15:47.717Z,61.04
2022-11-02T13:18:04.267Z,60.87
2022-11-02T13:20:28.700Z,61.17
2022-11-02T13:22:35.420Z,61.72
2022-11-02T13:24:42.359Z,60.32
2022-11-02T13:26:47.652Z,59.94
2022-11-02T13:28:56.898Z,59.12
2022-11-02T13:30:59.205Z,58.31
2022-11-02T13:33:12.566Z,58.45
2022-11-02T13:35:30.802Z,58.17
2022-11-02T13:37:43.603Z,57.64
2022-11-02T13:39:52.700Z,57.53
2022-11-02T13:42:40.271Z,58.16
2022-11-02T13:44:47.907Z,58.73
2022-11-02T13:47:20.387Z,57.92
2022-11-02T13:49:29.237Z,58.04
2022-11-02T13:51:54.847Z,58.72
2022-11-02T13:54:01.758Z,58.35
2022-11-02T13:56:10.369Z,57.70
2022-11-02T13:58:25.606Z,57.94
2022-11-02T14:00:31.605Z,58.63
2022-11-02T14:02:37.429Z,57.51
2022-11-02T14:04:41.135Z,58.47
2022-11-02T14:07:05.768Z,57.32
2022-11-02T14:09:09.950Z,57.86
2022-11-02T14:11:11.321Z,57.21
2022-11-02T14:13:17.594Z,58.84
2022-11-02T14:15:19.054Z,57.80
2022-11-02T14:17:20.518Z,57.32
2022-11-02T14:19:22.221Z,57.82
2022-11-02T14:21:45.197Z,58.26
2022-11-02T14:23:46.980Z,58.09
2022-11-02T14:25:49.415Z,58.80
2022-11-02T14:27:54.235Z,58.90
2022-11-02T14:29:56.021Z,58.44
2022-11-02T14:32:03.485Z,59.36
2022-11-02T14:34:12.551Z,59.75
2022-11-02T14:36:17.082Z,59.50
2022-11-02T14:38:37.698Z,59.75
2022-11-02T14:40:57.916Z,59.72
2022-11-02T14:43:53.834Z,60.10
2022-11-02T14:46:08.452Z,59.61
2022-11-02T14:48:16.172Z,59.47
2022-11-02T14:50:20.910Z,59.22
2022-11-02T14:52:34.290Z,61.08
2022-11-02T14:54:48.832Z,60.67
2022-11-02T14:56:50.207Z,60.47
2022-11-02T14:58:56.994Z,61.70
2022-11-02T15:01:01.330Z,61.09
2022-11-02T15:03:06.866Z,63.80
2022-11-02T15:05:19.480Z,63.27
2022-11-02T15:07:43.323Z,63.07
2022-11-02T15:10:01.186Z,63.21
2022-11-02T15:12:26.793Z,63.10
2022-11-02T15:14:38.766Z,63.79
2022-11-02T15:16:41.531Z,64.64
2022-11-02T15:18:42.976Z,66.25
2022-11-02T15:20:46.425Z,66.32
2022-11-02T15:22:56.389Z,66.65
2022-11-02T15:25:03.280Z,66.12
2022-11-02T15:27:06.945Z,66.38
2022-11-02T15:29:20.761Z,65.03
2022-11-02T15:31:26.277Z,65.99
2022-11-02T15:33:42.027Z,67.05
2022-11-02T15:35:44.335Z,67.90
2022-11-02T15:38:11.332Z,68.13
2022-11-02T15:40:19.801Z,67.59
2022-11-02T15:42:47.760Z,67.03
2022-11-02T15:45:27.001Z,67.48
2022-11-02T15:47:48.370Z,67.92
2022-11-02T15:50:08.237Z,67.20
2022-11-02T15:52:18.728Z,67.30
2022-11-02T15:54:20.160Z,67.50
2022-11-02T15:56:49.217Z,67.71
2022-11-02T15:59:18.238Z,68.87
2022-11-02T16:01:25.021Z,68.20
2022-11-02T16:03:27.563Z,69.72
2022-11-02T16:05:37.950Z,69.21
2022-11-02T16:07:50.314Z,69.12
2022-11-02T16:10:22.426Z,70.54
2022-11-02T16:12:24.783Z,71.21
2022-11-02T16:14:26.231Z,70.92
2022-11-02T16:16:30.805Z,72.17
2022-11-02T16:18:40.554Z,72.94
2022-11-02T16:20:45.473Z,72.94
2022-11-02T16:23:19.916Z,73.65
2022-11-02T16:25:41.547Z,74.09
2022-11-02T16:27:43.180Z,74.48
2022-11-02T16:29:45.398Z,74.82
2022-11-02T16:31:46.899Z,74.48
2022-11-02T16:33:53.891Z,74.13
2022-11-02T16:35:55.899Z,74.35
2022-11-02T16:37:57.792Z,74.81
2022-11-02T16:39:59.420Z,75.18
2022-11-02T16:42:02.536Z,74.33
2022-11-02T16:44:15.738Z,75.12
2022-11-02T16:46:17.970Z,75.07
2022-11-02T16:48:27.407Z,75.25
2022-11-02T16:50:29.334Z,75.35
2022-11-02T16:52:36.487Z,75.32
2022-11-02T16:54:40.954Z,75.59
2022-11-02T16:56:48.349Z,75.63
2022-11-02T16:58:51.098Z,75.98
2022-11-02T17:01:01.966Z,75.99
2022-11-02T17:03:09.518Z,75.63
2022-11-02T17:05:25.043Z,74.82
2022-11-02T17:07:35.775Z,75.26
2022-11-02T17:09:37.942Z,75.82
2022-11-02T17:11:42.968Z,75.77
2022-11-02T17:13:56.776Z,75.69
2022-11-02T17:16:06.015Z,75.07
2022-11-02T17:18:07.807Z,74.89
2022-11-02T17:20:15.200Z,75.42
2022-11-02T17:22:27.346Z,75.06
2022-11-02T17:24:32.901Z,75.20
2022-11-02T17:26:37.353Z,75.31
2022-11-02T17:28:45.380Z,75.49
2022-11-02T17:30:48.061Z,75.66
2022-11-02T17:32:49.543Z,75.81
2022-11-02T17:34:57.190Z,75.59
2022-11-02T17:36:58.690Z,75.81
2022-11-02T17:39:02.359Z,75.41
2022-11-02T17:41:23.979Z,75.44
2022-11-02T17:43:25.518Z,75.35
2022-11-02T17:45:29.613Z,75.36
2022-11-02T17:47:31.050Z,76.13
2022-11-02T17:49:32.698Z,76.01
2022-11-02T17:51:34.183Z,75.84
2022-11-02T17:53:35.634Z,76.08
2022-11-02T17:55:37.584Z,76.17
2022-11-02T17:57:39.031Z,75.78
2022-11-02T17:59:40.530Z,76.17
2022-11-02T18:01:42.149Z,76.12
2022-11-02T18:03:43.735Z,75.86
2022-11-02T18:05:49.417Z,76.03
2022-11-02T18:07:52.971Z,76.20
2022-11-02T18:09:54.387Z,76.06
2022-11-02T18:11:55.881Z,76.06
2022-11-02T18:13:57.338Z,75.73
2022-11-02T18:15:58.819Z,76.55
2022-11-02T18:18:00.789Z,76.42
2022-11-02T18:20:02.231Z,76.20
2022-11-02T18:22:03.715Z,75.79
2022-11-02T18:24:06.635Z,76.42
2022-11-02T18:26:11.891Z,76.71
2022-11-02T18:28:14.249Z,76.35
2022-11-02T18:30:17.600Z,76.18
2022-11-02T18:32:19.226Z,76.19
2022-11-02T18:34:21.646Z,75.74
2022-11-02T18:36:23.155Z,76.19
2022-11-02T18:38:24.647Z,75.76
2022-11-02T18:40:28.188Z,76.63
2022-11-02T18:42:31.982Z,76.01
2022-11-02T18:44:33.492Z,76.18
2022-11-02T18:46:35.509Z,76.28
2022-11-02T18:48:36.945Z,75.87
2022-11-02T18:50:38.439Z,76.47
2022-11-02T18:52:41.848Z,76.14
2022-11-02T18:54:43.376Z,76.50
2022-11-02T18:56:45.634Z,76.01
2022-11-02T18:58:53.892Z,76.18
2022-11-02T19:00:55.357Z,76.63
2022-11-02T19:02:56.871Z,76.20
2022-11-02T19:04:58.302Z,76.07
2022-11-02T19:07:18.701Z,76.10
2022-11-02T19:09:23.376Z,76.35
2022-11-02T19:11:24.993Z,76.25
2022-11-02T19:13:26.445Z,75.53
2022-11-02T19:15:28.020Z,75.58
2022-11-02T19:17:29.907Z,75.46
2022-11-02T19:19:32.238Z,75.47
2022-11-02T19:21:33.669Z,75.30
2022-11-02T19:23:35.117Z,75.85
2022-11-02T19:25:36.592Z,75.98
2022-11-02T19:27:38.136Z,75.77
2022-11-02T19:29:39.797Z,75.83
2022-11-02T19:31:41.607Z,76.38
2022-11-02T19:33:43.043Z,76.08
2022-11-02T19:35:54.504Z,75.81
2022-11-02T19:37:57.622Z,76.08
2022-11-02T19:39:59.085Z,75.93
2022-11-02T19:42:00.750Z,76.31
2022-11-02T19:44:02.300Z,76.46
2022-11-02T19:46:05.205Z,76.71
2022-11-02T19:48:07.082Z,76.74
2022-11-02T19:50:08.762Z,76.95
2022-11-02T19:52:10.175Z,76.66
2022-11-02T19:54:11.891Z,77.08
2022-11-02T19:56:15.202Z,77.05
2022-11-02T19:58:16.627Z,77.48
2022-11-02T20:00:18.237Z,77.27
2022-11-02T20:02:19.886Z,77.17
2022-11-02T20:04:21.414Z,77.96
2022-11-02T20:06:26.017Z,77.39
2022-11-02T20:08:27.666Z,77.49
2022-11-02T20:10:29.076Z,77.91
2022-11-02T20:12:33.473Z,77.38
2022-11-02T20:14:36.348Z,78.23
2022-11-02T20:16:38.218Z,78.30
2022-11-02T20:18:41.374Z,77.88
2022-11-02T20:20:43.020Z,78.51
2022-11-02T20:22:45.941Z,77.97
2022-11-02T20:24:47.362Z,77.78
2022-11-02T20:26:48.894Z,78.41
2022-11-02T20:28:51.643Z,78.75
2022-11-02T20:30:53.546Z,78.27
2022-11-02T20:32:55.365Z,78.39
2022-11-02T20:34:56.841Z,78.06
2022-11-02T20:36:58.290Z,78.29
2022-11-02T20:38:59.816Z,78.53
2022-11-02T20:41:13.771Z,78.24
2022-11-02T20:43:15.856Z,78.21
2022-11-02T20:45:17.931Z,77.78
2022-11-02T20:47:19.363Z,77.89
2022-11-02T20:49:44.325Z,78.04
2022-11-02T20:51:44.100Z,78.33
2022-11-02T20:53:46.443Z,78.16
2022-11-02T20:55:47.943Z,78.21
2022-11-02T20:57:49.896Z,78.29
2022-11-02T20:59:51.368Z,78.53
2022-11-02T21:01:52.937Z,77.79
2022-11-02T21:03:54.452Z,78.50
2022-11-02T21:05:57.277Z,78.27
2022-11-02T21:07:58.724Z,78.46
2022-11-02T21:10:00.169Z,77.90
2022-11-02T21:12:20.173Z,78.48
2022-11-02T21:14:22.808Z,78.66
2022-11-02T21:16:24.351Z,78.44
2022-11-02T21:18:25.780Z,78.58
2022-11-02T21:20:34.103Z,78.75
2022-11-02T21:22:36.396Z,78.21
2022-11-02T21:24:37.864Z,78.49
2022-11-02T21:26:39.313Z,79.01
2022-11-02T21:28:46.064Z,79.38
2022-11-02T21:30:48.559Z,79.26
2022-11-02T21:32:52.622Z,79.77
2022-11-02T21:34:54.326Z,79.38
2022-11-02T21:36:55.786Z,79.40
2022-11-02T21:38:58.699Z,78.87
2022-11-02T21:41:02.374Z,78.85
2022-11-02T21:43:04.719Z,79.68
2022-11-02T21:45:07.229Z,79.12
2022-11-02T21:47:08.814Z,78.25
2022-11-02T21:49:10.386Z,78.48
2022-11-02T21:51:17.642Z,78.81
2022-11-02T21:53:19.062Z,78.82
2022-11-02T21:55:20.518Z,78.89
2022-11-02T21:57:22.043Z,79.02
2022-11-02T21:59:23.464Z,78.98
2022-11-02T22:01:46.896Z,79.44
2022-11-02T22:03:48.863Z,79.68
2022-11-02T22:05:55.984Z,78.84
2022-11-02T22:08:16.003Z,78.51
2022-11-02T22:10:17.545Z,78.17
2022-11-02T22:12:37.648Z,78.31
2022-11-02T22:14:40.216Z,77.12
2022-11-02T22:16:43.132Z,77.26
2022-11-02T22:18:46.620Z,77.72
2022-11-02T22:20:54.858Z,77.28
2022-11-02T22:22:56.321Z,77.08
2022-11-02T22:24:57.827Z,76.55
2022-11-02T22:26:59.301Z,76.39
2022-11-02T22:29:01.051Z,76.58
2022-11-02T22:31:11.528Z,77.19
2022-11-02T22:33:12.965Z,77.31
2022-11-02T22:35:14.505Z,77.19
2022-11-02T22:37:34.501Z,77.01
2022-11-02T22:39:35.933Z,78.01
2022-11-02T22:41:38.545Z,78.47
2022-11-02T22:43:39.979Z,78.12
2022-11-02T22:45:41.412Z,78.58
2022-11-02T22:47:42.887Z,78.43
2022-11-02T22:49:44.315Z,79.03
2022-11-02T22:51:48.282Z,78.52
2022-11-02T22:53:50.447Z,78.93
2022-11-02T22:56:01.926Z,78.39
2022-11-02T22:58:03.374Z,78.37
2022-11-02T23:00:05.435Z,78.84
2022-11-02T23:02:06.905Z,78.32
2022-11-02T23:04:10.652Z,78.50
2022-11-02T23:06:13.462Z,78.07
2022-11-02T23:08:15.152Z,78.49
2022-11-02T23:10:35.230Z,78.28
2022-11-02T23:12:36.668Z,78.13
2022-11-02T23:14:38.144Z,78.03
2022-11-02T23:16:40.739Z,78.36
2022-11-02T23:19:00.826Z,78.48
2022-11-02T23:21:02.250Z,77.43
2022-11-02T23:23:22.103Z,77.95
2022-11-02T23:25:23.542Z,78.06
2022-11-02T23:27:25.101Z,77.83
2022-11-02T23:29:44.720Z,78.31
2022-11-02T23:32:04.325Z,77.71
2022-11-02T23:34:05.770Z,77.55
2022-11-02T23:36:10.851Z,78.16
2022-11-02T23:38:12.282Z,77.65
2022-11-02T23:40:19.062Z,77.92
2022-11-02T23:42:20.504Z,77.82
2022-11-02T23:44:21.975Z,77.47
2022-11-02T23:46:23.395Z,77.53
2022-11-02T23:48:24.803Z,77.51
2022-11-02T23:50:47.285Z,77.56
2022-11-02T23:53:07.298Z,77.75
2022-11-02T23:55:31.787Z,77.17
2022-11-02T23:57:33.301Z,77.31
2022-11-02T23:59:34.780Z,77.25
